»·PEaware :: SWA632 KPDX-KLAX

SWA632 :: KPDX-KLAX

FLIGHT INFORMATION

Flight Status: Arrived
Operator:
Southwest Airlines
More flights by this operator :: More flights under this callsign
Pilot: Maximilliano F. (23467)
Aircraft: BOEING 737-800
(B738)
More flights by this aircraft type
Origin: KPDX Portland Intl
United States
Destination: KLAX Los Angeles Intl
United States
More flights between these airports :: More routes between these airports
Route: CASCD2 JOGEN Q7 JAGWA BURGL IRNMN2
File this flight plan on PilotEdge
Remarks: RMK / SIMBRIEF
Altitude:
(Current/Filed)
35,000ft
Speed:
(Current/Filed)
461kts
Departed: 31-Oct-19 07:48 PM
Arrived: 31-Oct-19 09:45 PM
Distance/Time
Traveled:
724nm/1:56
Distance/Time
To Go:
Arrived

Flight Plot

Page will automatically refresh every two minutes.

Flight plan parsing failed; only flown route is shown


Map Options




Map Legend


Flown Route
Filed Route
Departure Airport
Arrival Airport
Navaid (VOR, NDB)
Fix

Horizontal Profiles

Position Reports

Time Latitude Longitude Heading Altitude Ground
Speed
31-Oct-19 19:02 45.590039 -122.597913 208 30ft 0kts
31-Oct-19 19:03 45.590039 -122.597913 208 30ft 0kts
31-Oct-19 19:04 45.590039 -122.597913 208 30ft 0kts
31-Oct-19 19:05 45.590039 -122.597913 208 30ft 0kts
31-Oct-19 19:06 45.590039 -122.597913 208 30ft 0kts
31-Oct-19 19:07 45.590039 -122.597913 208 30ft 0kts
31-Oct-19 19:08 45.590039 -122.597913 208 30ft 0kts
31-Oct-19 19:09 45.590039 -122.597913 208 29ft 0kts
31-Oct-19 19:10 45.590039 -122.597913 208 29ft 0kts
31-Oct-19 19:11 45.590039 -122.597913 208 29ft 0kts
31-Oct-19 19:12 45.590039 -122.597913 208 29ft 0kts
31-Oct-19 19:13 45.590039 -122.597913 208 29ft 0kts
31-Oct-19 19:14 45.590039 -122.597913 208 29ft 0kts
31-Oct-19 19:15 45.590039 -122.597913 208 29ft 0kts
31-Oct-19 19:16 45.590039 -122.597913 208 29ft 0kts
31-Oct-19 19:17 45.590039 -122.597913 208 29ft 0kts
31-Oct-19 19:18 45.590039 -122.597913 208 29ft 0kts
31-Oct-19 19:19 45.590039 -122.597913 208 29ft 0kts
31-Oct-19 19:20 45.590039 -122.597913 208 29ft 0kts
31-Oct-19 19:21 45.590039 -122.597913 208 29ft 0kts
31-Oct-19 19:22 45.590039 -122.597913 208 29ft 0kts
31-Oct-19 19:23 45.590039 -122.597913 208 29ft 0kts
31-Oct-19 19:24 45.590039 -122.597913 208 29ft 0kts
31-Oct-19 19:25 45.590039 -122.597913 208 29ft 0kts
31-Oct-19 19:26 45.590039 -122.597913 208 30ft 0kts
31-Oct-19 19:27 45.590039 -122.597913 208 30ft 0kts
31-Oct-19 19:28 45.590039 -122.597913 208 30ft 0kts
31-Oct-19 19:29 45.590335 -122.597679 208 30ft 2kts
31-Oct-19 19:30 45.590484 -122.597014 298 30ft 1kts
31-Oct-19 19:31 45.590450 -122.596934 299 29ft 0kts
31-Oct-19 19:32 45.590450 -122.596934 299 29ft 0kts
31-Oct-19 19:33 45.590450 -122.596934 299 29ft 0kts
31-Oct-19 19:34 45.590450 -122.596935 299 29ft 0kts
31-Oct-19 19:35 45.590450 -122.596935 299 29ft 0kts
31-Oct-19 19:36 45.590658 -122.597470 298 29ft 3kts
31-Oct-19 19:37 45.590766 -122.597743 299 29ft 3kts
31-Oct-19 19:38 45.591127 -122.598536 309 30ft 5kts
31-Oct-19 19:39 45.591381 -122.602352 269 30ft 22kts
31-Oct-19 19:40 45.592910 -122.610913 298 29ft 18kts
31-Oct-19 19:41 45.595403 -122.617319 300 30ft 18kts
31-Oct-19 19:42 45.595967 -122.620624 208 29ft 0kts
31-Oct-19 19:43 45.595967 -122.620624 208 29ft 0kts
31-Oct-19 19:44 45.595967 -122.620624 208 29ft 0kts
31-Oct-19 19:45 45.595967 -122.620624 208 29ft 0kts
31-Oct-19 19:46 45.594460 -122.619776 113 30ft 8kts
31-Oct-19 19:47 45.579652 -122.580328 116 801ft 173kts
31-Oct-19 19:48 45.569674 -122.501307 94 2627ft 244kts
31-Oct-19 19:49 45.555127 -122.402234 103 5540ft 266kts
31-Oct-19 19:50 45.518068 -122.311229 153 8270ft 286kts
31-Oct-19 19:51 45.441702 -122.266553 158 10420ft 320kts
31-Oct-19 19:52 45.352401 -122.216167 158 12219ft 363kts
31-Oct-19 19:53 45.257485 -122.162792 158 14720ft 379kts
31-Oct-19 19:54 45.157396 -122.106727 158 17184ft 395kts
31-Oct-19 19:55 45.053573 -122.048810 159 19505ft 409kts
31-Oct-19 19:56 44.946368 -121.989266 159 21533ft 426kts
31-Oct-19 19:57 44.835809 -121.928135 159 23511ft 437kts
31-Oct-19 19:58 44.721510 -121.865217 159 25327ft 447kts
31-Oct-19 19:59 44.604656 -121.801184 159 26986ft 458kts
31-Oct-19 20:00 44.484961 -121.735882 159 28513ft 468kts
31-Oct-19 20:01 44.362451 -121.669322 159 29981ft 476kts
31-Oct-19 20:02 44.233736 -121.628757 172 31528ft 477kts
31-Oct-19 20:03 44.103413 -121.598829 171 33123ft 475kts
31-Oct-19 20:04 43.973684 -121.568934 171 34620ft 472kts
31-Oct-19 20:05 43.844153 -121.539216 171 35347ft 485kts
31-Oct-19 20:06 43.711149 -121.508834 171 35345ft 483kts
31-Oct-19 20:07 43.578647 -121.478706 170 35347ft 485kts
31-Oct-19 20:08 43.445974 -121.448653 170 35348ft 484kts
31-Oct-19 20:09 43.313141 -121.418695 170 35351ft 484kts
31-Oct-19 20:10 43.180407 -121.388941 170 35352ft 484kts
31-Oct-19 20:11 43.047921 -121.359320 170 35338ft 483kts
31-Oct-19 20:12 42.916239 -121.329969 171 35332ft 482kts
31-Oct-19 20:13 42.785218 -121.300973 171 35324ft 481kts
31-Oct-19 20:14 42.653382 -121.271863 171 35324ft 482kts
31-Oct-19 20:15 42.521149 -121.242846 171 35320ft 481kts
31-Oct-19 20:16 42.389553 -121.214084 170 35321ft 481kts
31-Oct-19 20:17 42.257667 -121.185342 171 35322ft 481kts
31-Oct-19 20:18 42.125813 -121.156778 170 35326ft 481kts
31-Oct-19 20:19 41.994285 -121.128380 170 35328ft 480kts
31-Oct-19 20:20 41.864713 -121.100527 170 35322ft 475kts
31-Oct-19 20:21 41.734198 -121.072581 170 35322ft 477kts
31-Oct-19 20:22 41.603263 -121.044662 170 35325ft 476kts
31-Oct-19 20:23 41.472855 -121.016969 170 35327ft 475kts
31-Oct-19 20:24 41.342240 -120.989344 170 35338ft 475kts
31-Oct-19 20:25 41.211986 -120.961907 170 35347ft 475kts
31-Oct-19 20:26 41.081798 -120.934591 169 35350ft 474kts
31-Oct-19 20:27 40.951725 -120.913785 176 35352ft 474kts
31-Oct-19 20:28 40.822326 -120.903954 175 35345ft 473kts
31-Oct-19 20:29 40.691437 -120.893486 175 35356ft 472kts
31-Oct-19 20:30 40.560323 -120.883055 175 35365ft 472kts
31-Oct-19 20:31 40.429434 -120.872683 175 35366ft 472kts
31-Oct-19 20:32 40.298569 -120.862353 175 35366ft 472kts
31-Oct-19 20:33 40.167717 -120.852064 174 35360ft 471kts
31-Oct-19 20:34 40.037042 -120.841829 174 35359ft 471kts
31-Oct-19 20:35 39.906241 -120.831625 174 35359ft 467kts
31-Oct-19 20:37 39.776872 -120.821564 174 35354ft 469kts
31-Oct-19 20:38 39.646751 -120.811490 174 35354ft 467kts
31-Oct-19 20:39 39.517103 -120.801485 174 35347ft 467kts
31-Oct-19 20:40 39.386977 -120.791487 174 35347ft 466kts
31-Oct-19 20:41 39.257267 -120.781553 174 35348ft 466kts
31-Oct-19 20:42 39.127804 -120.771677 174 35349ft 465kts
31-Oct-19 20:43 38.999009 -120.761888 174 35332ft 464kts
31-Oct-19 20:44 38.871082 -120.752198 174 35243ft 464kts
31-Oct-19 20:45 38.742050 -120.742463 174 35236ft 463kts
31-Oct-19 20:46 38.613620 -120.732806 174 35236ft 463kts
31-Oct-19 20:47 38.484815 -120.723158 174 35237ft 462kts
31-Oct-19 20:48 38.356291 -120.713562 174 35236ft 463kts
31-Oct-19 20:49 38.228282 -120.704039 174 35229ft 461kts
31-Oct-19 20:50 38.100843 -120.694593 174 35229ft 461kts
31-Oct-19 20:51 37.972909 -120.685143 175 35230ft 460kts
31-Oct-19 20:52 37.845061 -120.675732 175 35217ft 459kts
31-Oct-19 20:53 37.717746 -120.666396 175 35200ft 460kts
31-Oct-19 20:54 37.590317 -120.657081 175 35200ft 459kts
31-Oct-19 20:54 37.484135 -120.649343 175 35200ft 459kts
31-Oct-19 20:56 37.335792 -120.637502 169 35202ft 458kts
31-Oct-19 20:56 37.233304 -120.606855 163 35203ft 456kts
31-Oct-19 20:57 37.110472 -120.566851 163 35210ft 456kts
31-Oct-19 20:59 36.967827 -120.520689 164 35211ft 455kts
31-Oct-19 20:59 36.865578 -120.487711 164 35209ft 455kts
31-Oct-19 21:00 36.744766 -120.448863 164 35209ft 454kts
31-Oct-19 21:02 36.601848 -120.403064 164 35209ft 455kts
31-Oct-19 21:02 36.500250 -120.370617 164 35209ft 454kts
31-Oct-19 21:03 36.378564 -120.331861 165 35210ft 454kts
31-Oct-19 21:04 36.254856 -120.292591 165 35215ft 472kts
31-Oct-19 21:05 36.125540 -120.251687 165 35208ft 479kts
31-Oct-19 21:06 35.997087 -120.211190 165 35212ft 478kts
31-Oct-19 21:07 35.869515 -120.171108 165 35207ft 479kts
31-Oct-19 21:08 35.740341 -120.130656 165 35208ft 478kts
31-Oct-19 21:09 35.617660 -120.070886 149 35215ft 478kts
31-Oct-19 21:10 35.504219 -119.985664 148 35217ft 475kts
31-Oct-19 21:11 35.394148 -119.902949 148 35214ft 463kts
31-Oct-19 21:12 35.284256 -119.819682 144 35122ft 461kts
31-Oct-19 21:13 35.182608 -119.724821 141 33355ft 461kts
31-Oct-19 21:14 35.081755 -119.630763 141 30031ft 448kts
31-Oct-19 21:15 34.986718 -119.542385 141 28061ft 438kts
31-Oct-19 21:16 34.893341 -119.456260 143 26153ft 417kts
31-Oct-19 21:17 34.802768 -119.375573 143 24301ft 393kts
31-Oct-19 21:18 34.715074 -119.297773 144 22748ft 389kts
31-Oct-19 21:19 34.629656 -119.223436 144 21031ft 366kts
31-Oct-19 21:20 34.549017 -119.153820 143 19396ft 347kts
31-Oct-19 21:21 34.468426 -119.082289 142 17600ft 352kts
31-Oct-19 21:22 34.391489 -119.015162 143 16025ft 330kts
31-Oct-19 21:23 34.316281 -118.949210 141 14490ft 334kts
31-Oct-19 21:24 34.244474 -118.883770 141 13000ft 313kts
31-Oct-19 21:25 34.176885 -118.821637 141 12162ft 286kts
31-Oct-19 21:26 34.116819 -118.758335 136 11062ft 283kts
31-Oct-19 21:27 34.060797 -118.697406 136 9928ft 268kts
31-Oct-19 21:28 34.026141 -118.622601 99 8823ft 253kts
31-Oct-19 21:29 34.017786 -118.537627 96 7819ft 260kts
31-Oct-19 21:30 34.011272 -118.458574 87 6999ft 227kts
31-Oct-19 21:31 34.021085 -118.393721 78 6332ft 213kts
31-Oct-19 21:32 34.029804 -118.331325 81 5398ft 214kts
31-Oct-19 21:33 34.038439 -118.259753 81 4172ft 223kts
31-Oct-19 21:34 34.046500 -118.190169 81 3982ft 223kts
31-Oct-19 21:35 34.055581 -118.111634 81 3981ft 222kts
31-Oct-19 21:36 34.039403 -118.051942 164 4025ft 226kts
31-Oct-19 21:37 33.986991 -118.078777 250 4002ft 224kts
31-Oct-19 21:38 33.978135 -118.144533 263 3981ft 225kts
31-Oct-19 21:39 33.972389 -118.202295 263 3393ft 232kts
31-Oct-19 21:40 33.966568 -118.260030 263 2501ft 212kts
31-Oct-19 21:41 33.961515 -118.309827 264 1666ft 176kts
31-Oct-19 21:42 33.956683 -118.357168 264 886ft 156kts
31-Oct-19 21:43 33.951345 -118.409483 263 168ft 165kts
31-Oct-19 21:44 33.948780 -118.431048 203 112ft 11kts
31-Oct-19 21:45 33.947527 -118.430797 182 112ft 0kts
31-Oct-19 21:46 33.946210 -118.428401 81 111ft 15kts
31-Oct-19 21:47 33.946767 -118.422925 83 120ft 18kts
31-Oct-19 21:48 33.947465 -118.416175 82 125ft 18kts
31-Oct-19 21:49 33.948163 -118.410645 82 127ft 14kts
31-Oct-19 21:50 33.948860 -118.403870 83 123ft 22kts
31-Oct-19 21:51 33.948553 -118.400882 227 120ft 2kts
31-Oct-19 21:52 33.947930 -118.401255 184 121ft 0kts

Navigation Log

Ident Type
Flight plan parsing failed, navigation log unavailable